Pinehurst, California
Current Conditions -  °F | °C
As of 8:55 AM on Saturday 22 Nov 2014 (Local Time) from KVIS Reporting Station
Clear Clear  
Wind Chill: 50°   Ceiling: Unl
Heat Index: 50°   Visibility: 3mi
Dew Point: 46°   Wind: 5mph
Humidity: 87%   Direction: 150°SSE
Pressure: 30.2"   Gusts: NA
Location:  36.6891°N, 119.03°W
Report Text: KVIS 221655Z 15004KT 3SM CLR 10/08 A3020 RMK AO1
Loading
Personal Weather Stations






























Interactive Weather Map New forecast layout! Learn more

10-Day Weather Forecast

Advertisements
Track Severe Weather on mobile